Time;durP1;ratioP1;P1;durP2;ratioP2;P2;SDS_P1;SDS_P2;PMS_P1;PMS_P2;Temp;Humidity;BMP_temperature;BMP_pressure;BME280_temperature;BME280_humidity;BME280_pressure;Samples;Min_cycle;Max_cycle;Signal;HPM_P1;HPM_P2
2022/12/31 00:01:24;;;;;;;59.33;17.35;;;4.10;99.90;;;;;;6203554;23;20334;-79
2022/12/31 00:03:52;;;;;;;73.57;20.05;;;4.00;99.90;;;;;;6203280;23;20012;-79
2022/12/31 00:06:26;;;;;;;61.25;18.60;;;3.90;99.90;;;;;;6204003;23;20032;-79
2022/12/31 00:08:58;;;;;;;62.30;17.25;;;4.20;99.90;;;;;;6182574;23;20029;-79
2022/12/31 00:11:28;;;;;;;65.88;18.50;;;4.10;99.90;;;;;;6205536;23;20039;-79
2022/12/31 00:13:56;;;;;;;63.10;17.92;;;4.00;99.90;;;;;;6230273;23;20023;-79
2022/12/31 00:16:35;;;;;;;69.53;17.45;;;4.00;99.90;;;;;;6206590;23;20020;-79
2022/12/31 00:19:05;;;;;;;61.53;18.67;;;4.00;99.90;;;;;;6203158;23;20012;-80
2022/12/31 00:21:35;;;;;;;62.90;19.92;;;4.00;99.90;;;;;;6205478;23;20019;-80
2022/12/31 00:24:11;;;;;;;59.03;17.23;;;4.10;99.90;;;;;;6227618;22;20014;31
2022/12/31 00:26:51;;;;;;;62.78;17.13;;;4.20;99.90;;;;;;6103760;23;20276;-78
2022/12/31 00:29:22;;;;;;;48.15;12.77;;;3.90;99.90;;;;;;6126593;23;20077;-78
2022/12/31 00:31:50;;;;;;;61.22;17.30;;;3.40;99.90;;;;;;6130757;23;20033;-78
2022/12/31 00:34:17;;;;;;;48.67;15.07;;;3.90;99.90;;;;;;6173743;23;20029;-78
2022/12/31 00:36:48;;;;;;;51.78;15.07;;;3.90;99.90;;;;;;6139206;23;20017;-78
2022/12/31 00:39:20;;;;;;;;;;;4.00;99.90;;;;;;6150356;23;20036;-78
2022/12/31 00:41:54;;;;;;;54.38;16.15;;;4.10;99.90;;;;;;6173649;23;19916;-78
2022/12/31 00:44:21;;;;;;;48.67;15.40;;;4.00;99.90;;;;;;6146003;23;20017;-78
2022/12/31 00:46:48;;;;;;;53.00;16.30;;;4.00;99.90;;;;;;6171875;23;20075;-78
2022/12/31 00:49:16;;;;;;;58.17;16.88;;;4.00;99.90;;;;;;6145561;23;20052;-78
2022/12/31 00:51:45;;;;;;;65.93;16.88;;;4.00;99.90;;;;;;6170634;23;20016;-78
2022/12/31 00:54:15;;;;;;;59.75;17.23;;;3.90;99.90;;;;;;6171211;23;20021;-78
2022/12/31 00:56:46;;;;;;;66.75;18.05;;;4.00;99.90;;;;;;6196100;23;20081;-78
2022/12/31 00:59:16;;;;;;;67.65;20.38;;;3.90;99.90;;;;;;6172192;23;20021;-78
2022/12/31 01:01:43;;;;;;;70.55;17.65;;;4.00;99.90;;;;;;6145432;23;20036;-78
2022/12/31 01:04:17;;;;;;;62.80;17.02;;;4.00;99.90;;;;;;6145325;23;20024;-78
2022/12/31 01:06:45;;;;;;;55.30;14.95;;;3.90;99.90;;;;;;6144274;23;20025;-78
2022/12/31 01:09:14;;;;;;;60.17;18.55;;;4.00;99.90;;;;;;6174173;23;20021;-78
2022/12/31 01:11:41;;;;;;;55.25;13.25;;;3.90;99.90;;;;;;6170359;23;20024;-79
2022/12/31 01:14:17;;;;;;;68.10;17.75;;;4.00;99.90;;;;;;6143418;23;20020;-79
2022/12/31 01:16:51;;;;;;;62.58;15.10;;;3.90;99.90;;;;;;6170838;23;20024;-80
2022/12/31 01:19:25;;;;;;;59.55;16.27;;;4.00;99.90;;;;;;6146057;23;20348;-79
2022/12/31 01:21:53;;;;;;;55.28;15.55;;;3.90;99.90;;;;;;6168290;23;20017;-79
2022/12/31 01:24:20;;;;;;;56.78;14.55;;;3.90;99.90;;;;;;6143764;23;20078;-79
2022/12/31 01:26:50;;;;;;;60.78;16.33;;;4.10;99.90;;;;;;6170011;23;20072;-79
2022/12/31 01:29:17;;;;;;;57.90;13.85;;;3.90;99.90;;;;;;6169049;23;20194;-79
2022/12/31 01:31:45;;;;;;;48.30;14.38;;;4.20;99.90;;;;;;6122851;23;20097;-79
2022/12/31 01:34:14;;;;;;;54.50;15.60;;;3.70;99.90;;;;;;6138536;23;20352;-79
2022/12/31 01:36:43;;;;;;;64.70;15.48;;;4.00;99.90;;;;;;6165743;23;20016;-79
2022/12/31 01:39:13;;;;;;;72.30;17.40;;;4.10;99.90;;;;;;6141838;23;20032;-79
2022/12/31 01:41:44;;;;;;;51.70;14.60;;;4.10;99.90;;;;;;6144830;23;20460;-79
2022/12/31 01:44:14;;;;;;;57.33;15.45;;;3.90;99.90;;;;;;6167449;23;20040;-79
2022/12/31 01:46:45;;;;;;;57.67;15.57;;;3.10;99.90;;;;;;6143984;23;20020;-79
2022/12/31 01:49:26;;;;;;;52.58;16.15;;;4.00;99.90;;;;;;6143053;23;20520;-79
2022/12/31 01:52:24;;;;;;;51.60;14.98;;;4.00;99.90;;;;;;6144244;23;20380;-78
2022/12/31 01:54:56;;;;;;;48.80;14.95;;;4.00;99.90;;;;;;6191506;23;20020;-78
2022/12/31 01:57:25;;;;;;;52.60;14.82;;;4.00;99.90;;;;;;6167308;23;20017;-77
2022/12/31 01:59:54;;;;;;;65.10;15.07;;;4.00;99.90;;;;;;6144622;23;20025;-78
2022/12/31 02:02:24;;;;;;;61.50;15.35;;;3.80;99.90;;;;;;6169861;23;20028;-78
2022/12/31 02:04:54;;;;;;;57.33;15.57;;;4.10;99.90;;;;;;6143829;23;20020;-80
2022/12/31 02:07:22;;;;;;;57.83;15.93;;;4.00;99.90;;;;;;6167380;23;20025;-80
2022/12/31 02:09:50;;;;;;;62.20;15.90;;;4.00;99.90;;;;;;6136267;23;20029;-79
2022/12/31 02:12:21;;;;;;;56.67;15.50;;;4.00;99.90;;;;;;6142627;23;20116;-79
2022/12/31 02:14:51;;;;;;;52.15;13.73;;;3.90;99.90;;;;;;6169093;23;20028;-79
2022/12/31 02:17:19;;;;;;;55.88;15.52;;;4.00;99.90;;;;;;6144033;23;20021;-79
2022/12/31 02:20:07;;;;;;;52.88;15.38;;;4.00;99.90;;;;;;6169092;23;20400;-79
2022/12/31 02:22:46;;;;;;;46.40;14.75;;;4.10;99.90;;;;;;6144174;23;20077;-79
2022/12/31 02:25:41;;;;;;;56.58;15.02;;;4.00;99.90;;;;;;6148331;23;20074;-79
2022/12/31 02:28:18;;;;;;;55.35;15.73;;;4.00;99.90;;;;;;6196028;23;20016;-79
2022/12/31 02:30:52;;;;;;;59.05;15.50;;;4.00;99.90;;;;;;6197986;23;20344;-79
2022/12/31 02:33:31;;;;;;;64.13;15.27;;;4.10;99.90;;;;;;6164380;23;20068;-79
2022/12/31 02:36:04;;;;;;;50.92;16.38;;;4.00;99.90;;;;;;6139388;23;20017;-79
2022/12/31 02:38:41;;;;;;;61.50;16.45;;;4.00;99.90;;;;;;6139793;23;20024;-79
2022/12/31 02:41:48;;;;;;;55.63;16.17;;;3.90;99.90;;;;;;6140799;23;20021;-79
2022/12/31 02:44:39;;;;;;;59.38;15.63;;;4.10;99.90;;;;;;6163271;23;20020;-79
2022/12/31 02:47:09;;;;;;;53.78;15.70;;;4.00;99.90;;;;;;6080805;23;20018;-79
2022/12/31 02:49:58;;;;;;;71.28;17.20;;;3.90;99.90;;;;;;6129103;23;20024;-79
2022/12/31 02:52:33;;;;;;;63.28;17.08;;;3.90;99.90;;;;;;6163215;23;20073;-79
2022/12/31 02:55:10;;;;;;;61.97;16.17;;;4.00;99.90;;;;;;6135145;23;20025;-79
2022/12/31 02:57:40;;;;;;;64.35;16.38;;;4.00;99.90;;;;;;6161591;23;20025;-79
2022/12/31 03:03:00;;;;;;;68.55;17.95;;;4.10;99.90;;;;;;6160028;23;20072;-79
2022/12/31 03:05:32;;;;;;;53.38;15.77;;;4.60;99.90;;;;;;6168232;23;20024;-79
2022/12/31 03:08:03;;;;;;;63.33;17.42;;;3.90;99.90;;;;;;6219736;23;20044;-79
2022/12/31 03:10:37;;;;;;;57.40;16.98;;;4.00;99.90;;;;;;6193699;23;20452;-79
2022/12/31 03:13:04;;;;;;;59.10;16.80;;;3.90;99.90;;;;;;6194727;23;20025;-79
2022/12/31 03:15:33;;;;;;;57.03;16.15;;;3.90;99.90;;;;;;6194483;23;20020;-79
2022/12/31 03:18:11;;;;;;;45.28;14.90;;;4.00;99.90;;;;;;6219647;23;20048;-78
2022/12/31 03:23:40;;;;;;;47.45;14.68;;;3.90;99.90;;;;;;6194646;23;20065;-78
2022/12/31 03:26:10;;;;;;;49.10;15.40;;;4.00;99.90;;;;;;6209142;23;20020;-78
2022/12/31 03:28:39;;;;;;;58.33;15.70;;;3.90;99.90;;;;;;6217573;23;20405;-78
2022/12/31 03:31:07;;;;;;;58.42;16.83;;;3.70;99.90;;;;;;6193153;23;20044;-78
2022/12/31 03:33:39;;;;;;;53.67;16.30;;;3.90;99.90;;;;;;6193905;23;20448;-78
2022/12/31 03:36:17;;;;;;;56.90;16.58;;;3.90;99.90;;;;;;6198104;23;20027;-78
2022/12/31 03:38:44;;;;;;;;;;;3.90;99.90;;;;;;6220683;23;20024;-78
2022/12/31 03:41:21;;;;;;;51.13;14.52;;;3.80;99.90;;;;;;6217120;23;19920;-78
2022/12/31 03:43:48;;;;;;;48.45;15.73;;;3.90;99.90;;;;;;6195447;23;20162;-78
2022/12/31 03:46:16;;;;;;;55.75;17.33;;;4.10;99.90;;;;;;6195245;23;20032;-78
2022/12/31 03:48:46;;;;;;;60.00;16.92;;;4.00;99.90;;;;;;6222249;23;20111;-78
2022/12/31 03:51:14;;;;;;;44.67;15.27;;;4.00;99.90;;;;;;6218478;23;20024;-78
2022/12/31 03:53:41;;;;;;;47.67;14.98;;;4.10;99.90;;;;;;6222249;23;20017;-78
2022/12/31 03:56:08;;;;;;;51.70;14.65;;;4.10;99.90;;;;;;6222386;23;20028;-79
2022/12/31 03:58:36;;;;;;;48.25;14.88;;;4.40;99.90;;;;;;6223919;23;20020;-79
2022/12/31 04:01:03;;;;;;;49.83;17.30;;;3.90;99.90;;;;;;6223437;23;20027;-78
2022/12/31 04:03:34;;;;;;;50.78;15.38;;;3.90;99.90;;;;;;6226436;23;20474;-79
2022/12/31 04:06:04;;;;;;;57.45;16.92;;;4.00;99.90;;;;;;6198776;23;20016;-79
2022/12/31 04:08:31;;;;;;;51.75;15.80;;;3.80;99.90;;;;;;6222104;23;20023;-78
2022/12/31 04:11:01;;;;;;;52.60;17.55;;;4.00;99.90;;;;;;6198308;23;20023;-78
2022/12/31 04:13:28;;;;;;;45.47;14.60;;;4.10;99.90;;;;;;6222482;23;20111;-78
2022/12/31 04:15:56;;;;;;;53.72;15.50;;;3.90;99.90;;;;;;6196448;23;20025;-78
2022/12/31 04:18:26;;;;;;;47.03;16.73;;;3.90;99.90;;;;;;6222720;23;20038;-78
2022/12/31 04:20:53;;;;;;;50.30;15.65;;;3.90;99.90;;;;;;6222122;23;20070;-78
2022/12/31 04:23:25;;;;;;;47.75;14.15;;;4.00;99.90;;;;;;6198372;23;20024;-78
2022/12/31 04:25:53;;;;;;;49.72;14.95;;;3.90;99.90;;;;;;6225938;23;20436;-78
2022/12/31 04:28:23;;;;;;;45.35;14.77;;;4.10;99.90;;;;;;6221863;23;20104;-78
2022/12/31 04:30:50;;;;;;;50.10;13.30;;;3.90;99.90;;;;;;6222958;23;20079;-78
2022/12/31 04:33:17;;;;;;;49.72;14.45;;;3.90;99.90;;;;;;6222160;23;20027;-78
2022/12/31 04:35:45;;;;;;;41.90;13.95;;;4.00;99.90;;;;;;6222979;23;20021;-78
2022/12/31 04:38:12;;;;;;;49.05;15.68;;;4.00;99.90;;;;;;6246286;23;20087;-78
2022/12/31 04:41:15;;;;;;;51.55;14.88;;;4.00;99.90;;;;;;6199547;23;20021;-78
2022/12/31 04:43:27;;;;;;;49.28;14.90;;;4.00;99.90;;;;;;6226901;23;20396;-78
2022/12/31 04:45:54;;;;;;;50.47;15.98;;;3.90;99.90;;;;;;6197216;23;20017;-79
2022/12/31 04:48:22;;;;;;;48.33;15.43;;;3.90;99.90;;;;;;6194998;23;20107;-79
2022/12/31 04:50:54;;;;;;;48.13;14.77;;;4.10;99.90;;;;;;6221357;23;20017;-79
2022/12/31 04:53:23;;;;;;;47.22;15.50;;;3.90;99.90;;;;;;6219654;23;20024;-79
2022/12/31 04:55:51;;;;;;;50.83;15.95;;;4.00;99.90;;;;;;6217984;23;20128;-80
2022/12/31 04:58:18;;;;;;;49.00;15.70;;;3.90;99.90;;;;;;6218506;23;20024;-79
2022/12/31 05:00:48;;;;;;;57.80;16.48;;;3.90;99.90;;;;;;6219496;23;20020;-79
2022/12/31 05:03:19;;;;;;;53.40;15.52;;;4.00;99.90;;;;;;6219704;23;20352;-79
2022/12/31 05:05:48;;;;;;;51.13;15.07;;;4.10;99.90;;;;;;6222163;23;20088;-79
2022/12/31 05:08:17;;;;;;;51.97;16.63;;;3.90;99.90;;;;;;6220695;23;20028;-79
2022/12/31 05:10:48;;;;;;;58.65;16.75;;;3.90;99.90;;;;;;6222359;23;20132;-79
2022/12/31 05:13:15;;;;;;;58.03;17.58;;;4.00;99.90;;;;;;6195207;23;20024;-79
2022/12/31 05:15:45;;;;;;;50.40;17.45;;;4.00;99.90;;;;;;6172362;23;20111;-80
2022/12/31 05:18:21;;;;;;;58.45;17.80;;;4.00;99.90;;;;;;6184792;23;20025;-80
2022/12/31 05:20:49;;;;;;;60.85;17.58;;;3.90;99.90;;;;;;6195893;23;20080;-79
2022/12/31 05:23:24;;;;;;;61.38;16.20;;;3.80;99.90;;;;;;6196583;23;20016;-79
2022/12/31 05:25:52;;;;;;;55.60;17.45;;;3.90;99.90;;;;;;6169924;23;20060;-79
2022/12/31 05:28:20;;;;;;;56.88;17.95;;;4.10;99.90;;;;;;6196469;23;20329;-79
2022/12/31 05:30:50;;;;;;;52.40;16.73;;;4.00;99.90;;;;;;6220869;23;20052;-80
2022/12/31 05:33:20;;;;;;;63.17;18.58;;;4.00;99.90;;;;;;6221181;23;20024;-79
2022/12/31 05:35:47;;;;;;;49.22;16.63;;;3.80;99.90;;;;;;6222293;23;20024;-79
2022/12/31 05:38:15;;;;;;;61.58;16.25;;;3.90;99.90;;;;;;6218376;23;20476;-79
2022/12/31 05:40:43;;;;;;;54.17;16.42;;;3.90;99.90;;;;;;6192182;23;20070;-79
2022/12/31 05:43:10;;;;;;;56.90;16.65;;;3.90;99.90;;;;;;6218913;23;20051;-79
2022/12/31 05:45:40;;;;;;;61.13;18.15;;;3.70;99.90;;;;;;6196868;23;20020;-80
2022/12/31 05:48:08;;;;;;;47.65;15.68;;;3.70;99.90;;;;;;6196153;23;20227;-80
2022/12/31 05:50:35;;;;;;;56.17;17.08;;;3.70;99.90;;;;;;6195137;23;20036;-79
2022/12/31 05:53:06;;;;;;;56.50;17.23;;;3.80;99.90;;;;;;6217812;23;20032;-79
2022/12/31 05:55:36;;;;;;;54.42;16.17;;;3.90;99.90;;;;;;6196005;23;20044;-79
2022/12/31 05:58:03;;;;;;;48.40;16.30;;;3.90;99.90;;;;;;6194724;23;20360;-79
2022/12/31 06:00:31;;;;;;;54.05;18.65;;;4.00;99.90;;;;;;6195948;23;20099;-79
2022/12/31 06:02:58;;;;;;;58.38;17.35;;;3.80;99.90;;;;;;6220672;23;20025;-79
2022/12/31 06:05:26;;;;;;;58.42;17.70;;;3.80;99.90;;;;;;6195174;23;20013;-79
2022/12/31 06:07:53;;;;;;;65.68;19.42;;;3.80;99.90;;;;;;6222186;23;20039;-79
2022/12/31 06:10:21;;;;;;;62.20;18.85;;;4.00;99.90;;;;;;6221305;23;20080;-79
2022/12/31 06:12:52;;;;;;;62.00;16.08;;;3.90;99.90;;;;;;6222390;23;20075;-79
2022/12/31 06:15:22;;;;;;;69.70;20.15;;;3.80;99.90;;;;;;6218365;23;20024;-79
2022/12/31 06:17:50;;;;;;;66.93;19.67;;;3.90;99.90;;;;;;6196188;23;20022;-78
2022/12/31 06:20:18;;;;;;;63.13;18.75;;;3.90;99.90;;;;;;6221645;23;20016;-78
2022/12/31 06:22:45;;;;;;;58.50;18.33;;;3.90;99.90;;;;;;6220244;23;20515;-78
2022/12/31 06:25:13;;;;;;;61.50;18.73;;;3.80;99.90;;;;;;6219311;23;20029;-78
2022/12/31 06:27:41;;;;;;;78.70;21.13;;;3.70;99.90;;;;;;6220074;23;20013;-78
2022/12/31 06:30:12;;;;;;;68.53;19.40;;;3.90;99.90;;;;;;6193454;23;20078;-78
2022/12/31 06:32:40;;;;;;;65.43;19.75;;;3.90;99.90;;;;;;6217509;23;20372;-78
2022/12/31 06:35:08;;;;;;;64.40;18.25;;;3.80;99.90;;;;;;6193891;23;20021;-78
2022/12/31 06:37:35;;;;;;;58.33;18.58;;;3.90;99.90;;;;;;6219650;23;20020;-78
2022/12/31 06:40:03;;;;;;;53.25;18.48;;;3.90;99.90;;;;;;6192686;23;20267;-78
2022/12/31 06:42:30;;;;;;;65.88;18.60;;;3.80;99.90;;;;;;6217971;23;20016;-78
2022/12/31 06:44:58;;;;;;;58.38;18.40;;;3.70;99.90;;;;;;6193506;23;20020;-78
2022/12/31 06:47:26;;;;;;;70.90;19.27;;;3.90;99.90;;;;;;6219852;23;20017;-78
2022/12/31 06:49:54;;;;;;;72.82;18.75;;;3.90;99.90;;;;;;6217710;23;20047;-80
2022/12/31 06:52:24;;;;;;;64.43;19.63;;;3.80;99.90;;;;;;6194966;23;20336;-79
2022/12/31 06:54:51;;;;;;;61.78;18.25;;;3.80;99.90;;;;;;6195647;23;20020;-79
2022/12/31 06:57:25;;;;;;;64.38;19.48;;;3.90;99.90;;;;;;6220031;23;20372;-79
2022/12/31 06:59:53;;;;;;;48.40;17.27;;;3.80;99.90;;;;;;6196246;23;20531;-79
2022/12/31 07:02:38;;;;;;;55.75;17.73;;;3.80;99.90;;;;;;6191887;23;20437;-78
2022/12/31 07:05:15;;;;;;;66.22;19.90;;;3.90;99.90;;;;;;6191579;23;20019;-78
2022/12/31 07:07:48;;;;;;;72.78;21.67;;;3.90;99.90;;;;;;6216468;23;20019;-78
2022/12/31 07:10:48;;;;;;;58.55;18.65;;;3.90;99.90;;;;;;6190926;23;20416;-78
2022/12/31 07:13:46;;;;;;;56.78;17.58;;;4.00;99.90;;;;;;6215761;23;20069;-78
2022/12/31 07:16:52;;;;;;;61.15;20.70;;;4.00;99.90;;;;;;6191700;23;20322;-78
2022/12/31 07:19:34;;;;;;;74.90;19.70;;;4.00;99.90;;;;;;6192503;23;20111;-78
2022/12/31 07:22:02;;;;;;;55.57;17.13;;;4.00;99.90;;;;;;6193053;23;20347;-78
2022/12/31 07:24:30;;;;;;;63.30;19.00;;;4.00;99.90;;;;;;6191320;23;20043;-78
2022/12/31 07:27:22;;;;;;;62.33;18.90;;;4.00;99.90;;;;;;6190195;23;20027;-78
2022/12/31 07:30:15;;;;;;;59.90;19.42;;;3.90;99.90;;;;;;6190896;23;20017;-78
2022/12/31 07:33:07;;;;;;;59.30;20.38;;;4.00;99.90;;;;;;6188090;23;20025;-78
2022/12/31 07:35:49;;;;;;;63.45;19.23;;;4.10;99.90;;;;;;6163159;23;20052;-77
2022/12/31 07:38:38;;;;;;;82.90;24.48;;;3.20;99.90;;;;;;6161694;23;20009;-77
2022/12/31 07:41:23;;;;;;;87.05;29.83;;;3.90;99.90;;;;;;6192747;23;20024;-77
2022/12/31 07:44:20;;;;;;;83.57;26.13;;;4.10;99.90;;;;;;6192322;23;20444;-77
2022/12/31 07:46:56;;;;;;;71.72;24.40;;;4.10;99.90;;;;;;6141455;23;20380;-77
2022/12/31 07:49:25;;;;;;;53.95;19.45;;;4.10;99.90;;;;;;6167815;23;20020;-77
2022/12/31 07:51:55;;;;;;;69.70;20.67;;;4.20;99.90;;;;;;6169431;23;20076;-77
2022/12/31 07:54:22;;;;;;;51.10;18.65;;;4.10;99.90;;;;;;6195642;23;20035;-78
2022/12/31 07:56:50;;;;;;;63.92;22.30;;;4.20;99.90;;;;;;6166557;23;20079;-78
2022/12/31 07:59:47;;;;;;;70.50;22.20;;;3.90;99.90;;;;;;6169302;23;20077;-78
2022/12/31 08:02:39;;;;;;;75.40;23.67;;;4.10;99.90;;;;;;6167100;23;20021;-79
2022/12/31 08:05:32;;;;;;;62.40;20.50;;;4.30;99.90;;;;;;6191534;23;20028;-79
2022/12/31 08:08:05;;;;;;;53.83;20.08;;;4.20;99.90;;;;;;6188709;23;20024;-78
2022/12/31 08:10:48;;;;;;;54.40;18.90;;;4.30;99.90;;;;;;6190292;23;20017;-78
2022/12/31 08:13:16;;;;;;;43.25;15.35;;;4.50;99.90;;;;;;6164776;23;20024;-78
2022/12/31 08:15:47;;;;;;;41.72;15.02;;;4.30;99.90;;;;;;6190060;23;20013;-78
2022/12/31 08:18:14;;;;;;;45.30;15.98;;;4.30;99.90;;;;;;6190214;23;20409;-78
2022/12/31 08:20:56;;;;;;;35.67;12.98;;;4.30;99.90;;;;;;6191106;23;20100;-78
2022/12/31 08:23:42;;;;;;;38.75;13.90;;;3.70;99.90;;;;;;6191212;23;20021;-79
2022/12/31 08:26:18;;;;;;;43.10;14.48;;;4.50;99.90;;;;;;6214510;23;20021;-78
2022/12/31 08:28:53;;;;;;;47.33;16.05;;;4.40;99.90;;;;;;6197394;23;20104;-78
2022/12/31 08:31:34;;;;;;;39.25;13.98;;;4.50;99.90;;;;;;6192224;23;20055;-77
2022/12/31 08:34:25;;;;;;;45.63;13.70;;;4.50;99.90;;;;;;6192559;23;20025;-77
2022/12/31 08:37:31;;;;;;;39.88;15.23;;;4.60;99.90;;;;;;6199582;23;20027;-79
2022/12/31 08:40:20;;;;;;;45.53;15.63;;;4.80;99.90;;;;;;6223479;23;20021;-79
2022/12/31 08:43:12;;;;;;;43.40;15.98;;;4.60;99.90;;;;;;6165599;23;20013;-79
2022/12/31 08:45:50;;;;;;;46.60;17.67;;;4.50;99.90;;;;;;6167579;23;20045;-78
2022/12/31 08:48:29;;;;;;;43.72;16.25;;;4.70;99.90;;;;;;6168968;23;20013;-79
2022/12/31 08:50:57;;;;;;;49.28;16.67;;;4.80;99.90;;;;;;6144924;23;20104;-79
2022/12/31 08:53:25;;;;;;;46.75;16.23;;;4.50;99.90;;;;;;6169889;23;20025;-79
2022/12/31 08:56:11;;;;;;;47.25;17.15;;;4.80;99.90;;;;;;6145411;23;20077;-79
2022/12/31 08:58:59;;;;;;;39.85;15.95;;;4.90;99.90;;;;;;6160742;23;20018;-79
2022/12/31 09:01:32;;;;;;;52.67;18.77;;;5.00;99.90;;;;;;6138081;23;20408;-79
2022/12/31 09:04:08;;;;;;;50.60;20.23;;;5.10;99.90;;;;;;6160326;23;20052;-79
2022/12/31 09:07:10;;;;;;;52.42;18.35;;;5.20;99.90;;;;;;6157288;23;20013;-79
2022/12/31 09:09:52;;;;;;;49.13;19.77;;;5.20;99.90;;;;;;6130060;23;20396;-79
2022/12/31 09:12:56;;;;;;;60.90;24.95;;;5.30;99.90;;;;;;6134389;23;20415;-79
2022/12/31 09:15:36;;;;;;;54.85;23.40;;;5.60;99.90;;;;;;6126594;23;20054;-79
2022/12/31 09:18:03;;;;;;;50.47;21.10;;;5.50;99.90;;;;;;6218746;23;20067;-78
2022/12/31 09:20:33;;;;;;;52.92;19.75;;;5.50;99.90;;;;;;6192414;23;20249;-78
2022/12/31 09:23:12;;;;;;;55.50;20.88;;;5.60;99.90;;;;;;6216260;23;20017;-78
2022/12/31 09:26:21;;;;;;;57.13;22.17;;;5.40;99.90;;;;;;6216911;23;20021;-78
2022/12/31 09:29:18;;;;;;;48.95;21.00;;;5.30;99.90;;;;;;6173602;23;20025;-78
2022/12/31 09:32:20;;;;;;;46.90;19.90;;;5.60;99.90;;;;;;6229065;23;20027;-78
2022/12/31 09:34:53;;;;;;;48.45;18.77;;;5.40;99.90;;;;;;6202685;23;20012;-79
2022/12/31 09:37:45;;;;;;;60.42;23.80;;;5.70;99.90;;;;;;6214536;23;20048;-78
2022/12/31 09:40:27;;;;;;;44.72;18.60;;;5.50;99.90;;;;;;6189226;23;20100;-79
2022/12/31 09:43:52;;;;;;;39.97;16.23;;;5.60;99.90;;;;;;6191301;23;20019;-78
2022/12/31 09:46:50;;;;;;;46.08;19.75;;;5.70;99.90;;;;;;6194529;23;20016;-78
2022/12/31 09:49:48;;;;;;;43.40;15.82;;;5.70;99.90;;;;;;6173192;23;20020;-78
2022/12/31 09:52:38;;;;;;;45.40;17.67;;;5.60;99.90;;;;;;6218838;23;20025;-78
2022/12/31 09:55:33;;;;;;;42.50;17.05;;;5.00;99.90;;;;;;6191725;23;20344;-78
2022/12/31 09:58:15;;;;;;;47.90;17.02;;;5.80;99.90;;;;;;6191768;23;20032;-78
2022/12/31 10:00:51;;;;;;;48.33;18.60;;;5.80;99.90;;;;;;6216103;23;20023;-78
2022/12/31 10:03:43;;;;;;;46.88;18.23;;;5.80;99.90;;;;;;6241237;23;20044;-77
2022/12/31 10:06:16;;;;;;;40.60;14.77;;;5.90;99.90;;;;;;6195767;23;20028;-79
2022/12/31 10:08:53;;;;;;;45.50;19.30;;;6.00;99.90;;;;;;6219009;23;20027;-78
2022/12/31 10:11:45;;;;;;;87.00;32.78;;;5.90;99.90;;;;;;6193263;23;20016;-79
2022/12/31 10:14:44;;;;;;;97.45;35.97;;;5.80;99.90;;;;;;6194129;23;20029;-77
2022/12/31 10:17:46;;;;;;;51.08;19.73;;;6.00;99.90;;;;;;6197122;23;20020;-77
2022/12/31 10:20:31;;;;;;;55.22;23.48;;;6.10;99.90;;;;;;6192654;23;20020;-78
2022/12/31 10:23:29;;;;;;;56.45;24.00;;;6.10;99.90;;;;;;6193694;23;20048;-78
2022/12/31 10:26:12;;;;;;;48.83;19.85;;;6.10;99.90;;;;;;6173992;23;20051;-79
2022/12/31 10:28:48;;;;;;;41.58;17.35;;;6.20;99.90;;;;;;6192282;23;20028;-78
2022/12/31 10:31:47;;;;;;;49.80;17.70;;;6.10;99.90;;;;;;6191824;23;20111;-78
2022/12/31 10:34:24;;;;;;;46.25;17.23;;;6.10;99.90;;;;;;6214781;23;20066;-78
2022/12/31 10:37:14;;;;;;;50.22;19.92;;;6.20;99.90;;;;;;6192084;23;20017;-78
2022/12/31 10:40:03;;;;;;;58.33;28.77;;;5.20;99.90;;;;;;6191101;23;20048;-78
2022/12/31 10:43:01;;;;;;;48.47;19.33;;;6.30;99.90;;;;;;6192492;23;20032;-77
2022/12/31 10:45:56;;;;;;;46.45;22.05;;;6.20;99.90;;;;;;6191308;23;20285;-77
2022/12/31 10:48:45;;;;;;;49.13;22.13;;;6.10;99.90;;;;;;6189256;23;20024;-79
2022/12/31 10:51:43;;;;;;;44.60;21.05;;;6.20;99.90;;;;;;6190213;23;20612;-78
2022/12/31 10:54:56;;;;;;;52.45;22.83;;;6.20;99.90;;;;;;6192529;23;20367;-78
2022/12/31 10:57:55;;;;;;;64.75;28.10;;;6.20;99.90;;;;;;6175371;23;20021;-78
2022/12/31 11:01:06;;;;;;;70.75;31.00;;;6.20;99.90;;;;;;6192388;23;20023;-78
2022/12/31 11:04:02;;;;;;;74.38;32.47;;;6.30;99.90;;;;;;6160804;23;20390;-78
2022/12/31 11:07:06;;;;;;;73.40;29.33;;;6.30;99.90;;;;;;6160718;23;20024;-78
2022/12/31 11:10:01;;;;;;;53.25;22.52;;;6.30;99.90;;;;;;6161378;23;20021;-78
2022/12/31 11:12:44;;;;;;;68.32;26.08;;;6.00;99.90;;;;;;6135199;23;20108;-78
2022/12/31 11:15:22;;;;;;;50.80;22.38;;;6.30;99.90;;;;;;6160223;23;20028;-78
2022/12/31 11:18:08;;;;;;;43.40;20.33;;;6.40;99.90;;;;;;6162474;23;20056;-79
2022/12/31 11:21:03;;;;;;;46.28;19.80;;;6.30;99.90;;;;;;6186801;23;20504;-79
2022/12/31 11:23:39;;;;;;;42.17;19.60;;;6.20;99.90;;;;;;6131992;23;20053;-80
2022/12/31 11:26:09;;;;;;;50.22;21.92;;;6.30;99.90;;;;;;6172111;23;20109;-79
2022/12/31 11:28:49;;;;;;;78.93;34.53;;;6.20;99.90;;;;;;6183518;23;20528;-79
2022/12/31 11:37:45;;;;;;;51.58;22.17;;;6.30;99.90;;;;;;6229858;22;20036;-79
2022/12/31 11:40:19;;;;;;;42.00;18.75;;;6.40;99.90;;;;;;6203842;22;20023;31
2022/12/31 11:42:56;;;;;;;40.13;19.20;;;6.30;99.90;;;;;;6129067;23;20020;-79
2022/12/31 11:46:01;;;;;;;40.70;19.52;;;6.20;99.90;;;;;;6179568;23;20028;-79
2022/12/31 11:48:42;;;;;;;44.53;20.50;;;6.40;99.90;;;;;;6123894;23;20010;-79
2022/12/31 11:57:32;;;;;;;45.47;20.55;;;6.30;99.90;;;;;;6229521;22;20028;-80
2022/12/31 12:00:07;;;;;;;43.97;20.08;;;6.30;99.90;;;;;;6107273;23;20043;31
2022/12/31 12:02:56;;;;;;;47.47;20.88;;;6.30;99.90;;;;;;6184786;22;20025;-78
2022/12/31 12:05:25;;;;;;;43.28;18.40;;;6.30;99.90;;;;;;6212592;23;20070;-78
2022/12/31 12:07:53;;;;;;;40.33;17.17;;;6.50;99.90;;;;;;6227102;22;20016;-79
2022/12/31 12:10:23;;;;;;;44.35;19.88;;;6.40;99.90;;;;;;6244397;23;20023;-79
2022/12/31 12:12:57;;;;;;;47.42;21.83;;;6.40;99.90;;;;;;6220827;23;20024;-77
2022/12/31 12:15:32;;;;;;;58.65;24.65;;;6.00;99.90;;;;;;6221589;23;20035;-79
2022/12/31 12:18:07;;;;;;;44.60;19.67;;;5.40;99.90;;;;;;6220516;23;20016;-78
2022/12/31 12:20:39;;;;;;;42.47;21.23;;;6.50;99.90;;;;;;6219349;23;20012;-78
2022/12/31 12:23:24;;;;;;;40.60;19.33;;;6.50;99.90;;;;;;6243527;23;20444;-78
2022/12/31 12:25:54;;;;;;;43.85;19.88;;;6.50;99.90;;;;;;6241495;23;20501;-78
2022/12/31 12:28:25;;;;;;;43.67;20.67;;;6.50;99.90;;;;;;6219145;23;20016;-78
2022/12/31 12:31:01;;;;;;;39.78;17.05;;;6.50;99.90;;;;;;6245587;23;20016;-77
2022/12/31 12:33:40;;;;;;;38.05;18.08;;;5.40;99.90;;;;;;6246547;23;20016;-77
2022/12/31 12:36:12;;;;;;;44.50;19.77;;;6.60;99.90;;;;;;6216501;23;20365;-78
2022/12/31 12:38:39;;;;;;;40.45;18.38;;;6.60;99.90;;;;;;6219562;23;20020;-78
2022/12/31 12:41:17;;;;;;;43.30;18.70;;;6.10;99.90;;;;;;6244891;22;20012;-77
2022/12/31 12:43:45;;;;;;;38.83;18.35;;;6.70;99.90;;;;;;6237503;23;20040;-79
2022/12/31 12:46:29;;;;;;;42.33;18.40;;;6.70;99.90;;;;;;6215000;23;20147;-77
2022/12/31 12:48:58;;;;;;;41.65;18.63;;;6.80;99.90;;;;;;6241072;23;20027;-77
2022/12/31 12:51:35;;;;;;;46.50;19.92;;;6.80;99.90;;;;;;6241787;23;20034;-77
2022/12/31 12:54:15;;;;;;;42.10;18.70;;;6.70;99.90;;;;;;6242151;23;20050;-77
2022/12/31 12:56:55;;;;;;;45.17;19.98;;;6.60;99.90;;;;;;6243255;23;20474;-77
2022/12/31 12:59:52;;;;;;;40.60;18.38;;;6.70;99.90;;;;;;6245672;23;20023;-78
2022/12/31 13:02:28;;;;;;;40.00;18.92;;;6.80;99.90;;;;;;6244046;23;20020;-78
2022/12/31 13:05:23;;;;;;;44.95;20.92;;;6.70;99.90;;;;;;6219813;23;20024;-78
2022/12/31 13:08:18;;;;;;;43.35;18.15;;;6.90;99.90;;;;;;6217274;23;20054;-78
2022/12/31 13:11:21;;;;;;;35.90;15.85;;;6.90;99.90;;;;;;6244156;23;20028;-78
2022/12/31 13:14:14;;;;;;;47.28;20.83;;;6.90;99.90;;;;;;6218461;23;20023;-79
2022/12/31 13:16:41;;;;;;;48.78;20.02;;;7.20;99.90;;;;;;6242841;23;20028;-79
2022/12/31 13:19:27;;;;;;;41.28;19.55;;;7.00;99.90;;;;;;6246366;23;20016;-79
2022/12/31 13:22:14;;;;;;;46.28;19.98;;;6.90;99.90;;;;;;6246964;23;20012;-78
2022/12/31 13:25:25;;;;;;;44.22;20.73;;;6.90;99.90;;;;;;6245016;23;20020;-78
2022/12/31 13:27:57;;;;;;;37.75;19.42;;;7.00;99.90;;;;;;6220206;23;20107;-78
2022/12/31 13:30:31;;;;;;;40.63;20.20;;;6.70;99.90;;;;;;6218929;23;20027;-78
2022/12/31 13:33:23;;;;;;;44.45;20.30;;;7.00;99.90;;;;;;6245886;23;20344;-78
2022/12/31 13:35:57;;;;;;;46.13;20.63;;;7.00;99.90;;;;;;6244007;23;20020;-78
2022/12/31 13:38:28;;;;;;;42.88;20.83;;;7.10;99.90;;;;;;6243484;23;20402;-78
2022/12/31 13:41:02;;;;;;;42.92;21.50;;;7.20;99.90;;;;;;6245478;23;20016;-78
2022/12/31 13:43:41;;;;;;;52.00;24.10;;;7.20;99.90;;;;;;6244300;23;20016;-77
2022/12/31 13:46:39;;;;;;;48.70;22.05;;;7.20;99.90;;;;;;6244855;23;20016;-78